sensor_id;sensor_type;location;lat;lon;timestamp;P1;durP1;ratioP1;P2;durP2;ratioP2
78430;SDS011;67727;50.236;22.452;2023-02-28T00:00:37;15.60;;;8.00;;
78430;SDS011;67727;50.236;22.452;2023-02-28T00:03:16;12.00;;;7.80;;
78430;SDS011;67727;50.236;22.452;2023-02-28T00:05:43;14.70;;;8.20;;
78430;SDS011;67727;50.236;22.452;2023-02-28T00:08:10;15.70;;;9.00;;
78430;SDS011;67727;50.236;22.452;2023-02-28T00:10:38;15.00;;;8.80;;
78430;SDS011;67727;50.236;22.452;2023-02-28T00:13:05;13.90;;;7.50;;
78430;SDS011;67727;50.236;22.452;2023-02-28T00:15:33;9.30;;;5.00;;
78430;SDS011;67727;50.236;22.452;2023-02-28T00:18:00;11.30;;;6.20;;
78430;SDS011;67727;50.236;22.452;2023-02-28T00:20:27;11.10;;;6.50;;
78430;SDS011;67727;50.236;22.452;2023-02-28T00:22:55;10.00;;;5.80;;
78430;SDS011;67727;50.236;22.452;2023-02-28T00:25:23;10.50;;;7.50;;
78430;SDS011;67727;50.236;22.452;2023-02-28T00:27:51;11.60;;;5.90;;
78430;SDS011;67727;50.236;22.452;2023-02-28T00:30:20;12.00;;;7.00;;
78430;SDS011;67727;50.236;22.452;2023-02-28T00:32:49;10.60;;;5.50;;
78430;SDS011;67727;50.236;22.452;2023-02-28T00:35:16;10.80;;;6.00;;
78430;SDS011;67727;50.236;22.452;2023-02-28T00:37:44;9.60;;;5.60;;
78430;SDS011;67727;50.236;22.452;2023-02-28T00:40:11;11.30;;;6.40;;
78430;SDS011;67727;50.236;22.452;2023-02-28T00:42:39;13.80;;;7.20;;
78430;SDS011;67727;50.236;22.452;2023-02-28T00:45:07;10.80;;;6.60;;
78430;SDS011;67727;50.236;22.452;2023-02-28T00:47:37;12.70;;;7.50;;
78430;SDS011;67727;50.236;22.452;2023-02-28T00:50:04;11.00;;;5.70;;
78430;SDS011;67727;50.236;22.452;2023-02-28T00:52:33;12.60;;;7.50;;
78430;SDS011;67727;50.236;22.452;2023-02-28T00:55:00;11.60;;;5.60;;
78430;SDS011;67727;50.236;22.452;2023-02-28T00:57:27;15.20;;;7.30;;
78430;SDS011;67727;50.236;22.452;2023-02-28T00:59:54;13.10;;;8.10;;
78430;SDS011;67727;50.236;22.452;2023-02-28T01:02:22;16.20;;;8.50;;
78430;SDS011;67727;50.236;22.452;2023-02-28T01:04:49;15.20;;;7.00;;
78430;SDS011;67727;50.236;22.452;2023-02-28T01:07:16;12.10;;;8.60;;
78430;SDS011;67727;50.236;22.452;2023-02-28T01:09:43;13.90;;;7.30;;
78430;SDS011;67727;50.236;22.452;2023-02-28T01:12:11;11.90;;;8.00;;
78430;SDS011;67727;50.236;22.452;2023-02-28T01:14:38;13.70;;;8.00;;
78430;SDS011;67727;50.236;22.452;2023-02-28T01:17:07;18.70;;;8.40;;
78430;SDS011;67727;50.236;22.452;2023-02-28T01:19:34;13.90;;;7.10;;
78430;SDS011;67727;50.236;22.452;2023-02-28T01:22:02;12.90;;;6.80;;
78430;SDS011;67727;50.236;22.452;2023-02-28T01:24:31;9.40;;;6.10;;
78430;SDS011;67727;50.236;22.452;2023-02-28T01:26:58;11.40;;;6.40;;
78430;SDS011;67727;50.236;22.452;2023-02-28T01:29:26;12.90;;;6.70;;
78430;SDS011;67727;50.236;22.452;2023-02-28T01:31:53;15.10;;;7.80;;
78430;SDS011;67727;50.236;22.452;2023-02-28T01:34:20;12.10;;;6.00;;
78430;SDS011;67727;50.236;22.452;2023-02-28T01:36:47;14.50;;;7.20;;
78430;SDS011;67727;50.236;22.452;2023-02-28T01:39:14;11.00;;;5.70;;
78430;SDS011;67727;50.236;22.452;2023-02-28T01:41:41;12.60;;;6.50;;
78430;SDS011;67727;50.236;22.452;2023-02-28T01:47:14;12.00;;;6.30;;
78430;SDS011;67727;50.236;22.452;2023-02-28T01:49:41;15.50;;;7.80;;
78430;SDS011;67727;50.236;22.452;2023-02-28T01:52:09;15.40;;;7.00;;
78430;SDS011;67727;50.236;22.452;2023-02-28T01:54:54;11.70;;;7.10;;
78430;SDS011;67727;50.236;22.452;2023-02-28T01:57:24;11.30;;;6.40;;
78430;SDS011;67727;50.236;22.452;2023-02-28T01:59:56;10.70;;;5.90;;
78430;SDS011;67727;50.236;22.452;2023-02-28T02:02:26;12.10;;;6.30;;
78430;SDS011;67727;50.236;22.452;2023-02-28T02:04:57;7.00;;;4.70;;
78430;SDS011;67727;50.236;22.452;2023-02-28T02:07:33;8.00;;;5.90;;
78430;SDS011;67727;50.236;22.452;2023-02-28T02:10:15;13.30;;;6.30;;
78430;SDS011;67727;50.236;22.452;2023-02-28T02:13:07;10.90;;;5.60;;
78430;SDS011;67727;50.236;22.452;2023-02-28T02:23:58;12.80;;;6.90;;
78430;SDS011;67727;50.236;22.452;2023-02-28T02:35:00;12.20;;;6.60;;
78430;SDS011;67727;50.236;22.452;2023-02-28T02:40:32;13.40;;;7.00;;
78430;SDS011;67727;50.236;22.452;2023-02-28T02:43:22;12.90;;;8.10;;
78430;SDS011;67727;50.236;22.452;2023-02-28T02:45:59;11.90;;;7.50;;
78430;SDS011;67727;50.236;22.452;2023-02-28T02:48:41;13.00;;;7.50;;
78430;SDS011;67727;50.236;22.452;2023-02-28T02:51:11;16.20;;;7.30;;
78430;SDS011;67727;50.236;22.452;2023-02-28T02:53:47;10.20;;;6.60;;
78430;SDS011;67727;50.236;22.452;2023-02-28T02:56:19;15.60;;;8.50;;
78430;SDS011;67727;50.236;22.452;2023-02-28T02:58:49;13.30;;;7.50;;
78430;SDS011;67727;50.236;22.452;2023-02-28T03:01:21;13.10;;;8.50;;
78430;SDS011;67727;50.236;22.452;2023-02-28T03:03:58;11.30;;;6.70;;
78430;SDS011;67727;50.236;22.452;2023-02-28T03:06:38;14.80;;;7.40;;
78430;SDS011;67727;50.236;22.452;2023-02-28T03:09:05;13.40;;;6.80;;
78430;SDS011;67727;50.236;22.452;2023-02-28T03:11:32;13.90;;;7.50;;
78430;SDS011;67727;50.236;22.452;2023-02-28T03:14:18;18.20;;;7.50;;
78430;SDS011;67727;50.236;22.452;2023-02-28T03:19:55;16.30;;;8.50;;
78430;SDS011;67727;50.236;22.452;2023-02-28T03:22:42;17.30;;;8.30;;
78430;SDS011;67727;50.236;22.452;2023-02-28T03:25:47;13.20;;;7.80;;
78430;SDS011;67727;50.236;22.452;2023-02-28T03:31:18;17.30;;;7.70;;
78430;SDS011;67727;50.236;22.452;2023-02-28T03:33:51;13.90;;;8.50;;
78430;SDS011;67727;50.236;22.452;2023-02-28T03:36:23;17.20;;;9.20;;
78430;SDS011;67727;50.236;22.452;2023-02-28T03:39:06;13.90;;;7.00;;
78430;SDS011;67727;50.236;22.452;2023-02-28T03:41:37;15.60;;;8.50;;
78430;SDS011;67727;50.236;22.452;2023-02-28T03:46:46;14.10;;;8.80;;
78430;SDS011;67727;50.236;22.452;2023-02-28T03:49:28;17.70;;;7.80;;
78430;SDS011;67727;50.236;22.452;2023-02-28T03:51:59;19.10;;;9.20;;
78430;SDS011;67727;50.236;22.452;2023-02-28T03:54:33;17.80;;;9.10;;
78430;SDS011;67727;50.236;22.452;2023-02-28T03:57:10;13.30;;;8.50;;
78430;SDS011;67727;50.236;22.452;2023-02-28T04:00:03;13.70;;;7.40;;
78430;SDS011;67727;50.236;22.452;2023-02-28T04:02:35;15.40;;;8.70;;
78430;SDS011;67727;50.236;22.452;2023-02-28T04:05:03;15.60;;;8.50;;
78430;SDS011;67727;50.236;22.452;2023-02-28T04:07:31;16.80;;;9.20;;
78430;SDS011;67727;50.236;22.452;2023-02-28T04:09:58;16.00;;;8.30;;
78430;SDS011;67727;50.236;22.452;2023-02-28T04:12:26;13.30;;;7.30;;
78430;SDS011;67727;50.236;22.452;2023-02-28T04:14:53;16.70;;;9.80;;
78430;SDS011;67727;50.236;22.452;2023-02-28T04:17:20;11.60;;;8.00;;
78430;SDS011;67727;50.236;22.452;2023-02-28T04:19:47;15.60;;;9.60;;
78430;SDS011;67727;50.236;22.452;2023-02-28T04:22:14;13.00;;;8.10;;
78430;SDS011;67727;50.236;22.452;2023-02-28T04:24:43;10.90;;;6.60;;
78430;SDS011;67727;50.236;22.452;2023-02-28T04:27:11;13.30;;;8.30;;
78430;SDS011;67727;50.236;22.452;2023-02-28T04:29:38;13.70;;;7.70;;
78430;SDS011;67727;50.236;22.452;2023-02-28T04:32:05;13.70;;;8.60;;
78430;SDS011;67727;50.236;22.452;2023-02-28T04:34:32;19.80;;;10.00;;
78430;SDS011;67727;50.236;22.452;2023-02-28T04:36:59;19.50;;;12.40;;
78430;SDS011;67727;50.236;22.452;2023-02-28T04:39:27;47.90;;;24.10;;
78430;SDS011;67727;50.236;22.452;2023-02-28T04:41:54;18.20;;;10.10;;
78430;SDS011;67727;50.236;22.452;2023-02-28T04:44:21;15.60;;;8.90;;
78430;SDS011;67727;50.236;22.452;2023-02-28T04:46:49;16.80;;;9.90;;
78430;SDS011;67727;50.236;22.452;2023-02-28T04:49:16;19.70;;;9.60;;
78430;SDS011;67727;50.236;22.452;2023-02-28T04:51:44;19.50;;;9.80;;
78430;SDS011;67727;50.236;22.452;2023-02-28T04:54:11;25.00;;;13.10;;
78430;SDS011;67727;50.236;22.452;2023-02-28T04:56:39;23.40;;;13.10;;
78430;SDS011;67727;50.236;22.452;2023-02-28T04:59:06;19.00;;;11.70;;
78430;SDS011;67727;50.236;22.452;2023-02-28T05:01:34;20.80;;;11.00;;
78430;SDS011;67727;50.236;22.452;2023-02-28T05:04:03;36.90;;;14.50;;
78430;SDS011;67727;50.236;22.452;2023-02-28T05:06:32;57.30;;;18.10;;
78430;SDS011;67727;50.236;22.452;2023-02-28T05:11:28;16.70;;;9.40;;
78430;SDS011;67727;50.236;22.452;2023-02-28T05:14:02;18.10;;;9.40;;
78430;SDS011;67727;50.236;22.452;2023-02-28T05:16:30;25.80;;;9.20;;
78430;SDS011;67727;50.236;22.452;2023-02-28T05:21:29;22.20;;;9.00;;
78430;SDS011;67727;50.236;22.452;2023-02-28T05:23:59;22.50;;;10.80;;
78430;SDS011;67727;50.236;22.452;2023-02-28T05:26:28;15.70;;;9.30;;
78430;SDS011;67727;50.236;22.452;2023-02-28T05:28:56;27.50;;;12.30;;
78430;SDS011;67727;50.236;22.452;2023-02-28T05:31:23;19.90;;;10.10;;
78430;SDS011;67727;50.236;22.452;2023-02-28T05:33:50;22.10;;;10.20;;
78430;SDS011;67727;50.236;22.452;2023-02-28T05:36:18;19.80;;;10.30;;
78430;SDS011;67727;50.236;22.452;2023-02-28T05:38:46;22.00;;;11.00;;
78430;SDS011;67727;50.236;22.452;2023-02-28T05:41:14;25.10;;;11.80;;
78430;SDS011;67727;50.236;22.452;2023-02-28T05:46:10;21.00;;;11.10;;
78430;SDS011;67727;50.236;22.452;2023-02-28T05:48:38;21.00;;;10.90;;
78430;SDS011;67727;50.236;22.452;2023-02-28T05:51:07;23.90;;;12.60;;
78430;SDS011;67727;50.236;22.452;2023-02-28T05:53:35;24.10;;;13.10;;
78430;SDS011;67727;50.236;22.452;2023-02-28T05:56:03;22.10;;;11.90;;
78430;SDS011;67727;50.236;22.452;2023-02-28T05:58:30;34.90;;;16.20;;
78430;SDS011;67727;50.236;22.452;2023-02-28T06:00:58;34.50;;;13.90;;
78430;SDS011;67727;50.236;22.452;2023-02-28T06:03:27;30.20;;;14.30;;
78430;SDS011;67727;50.236;22.452;2023-02-28T06:05:54;35.30;;;14.80;;
78430;SDS011;67727;50.236;22.452;2023-02-28T06:08:21;34.30;;;16.40;;
78430;SDS011;67727;50.236;22.452;2023-02-28T06:10:48;41.60;;;17.50;;
78430;SDS011;67727;50.236;22.452;2023-02-28T06:13:16;38.20;;;16.70;;
78430;SDS011;67727;50.236;22.452;2023-02-28T06:15:43;46.80;;;19.00;;
78430;SDS011;67727;50.236;22.452;2023-02-28T06:18:10;35.30;;;15.30;;
78430;SDS011;67727;50.236;22.452;2023-02-28T06:20:37;39.80;;;15.80;;
78430;SDS011;67727;50.236;22.452;2023-02-28T06:23:04;34.20;;;13.60;;
78430;SDS011;67727;50.236;22.452;2023-02-28T06:25:31;38.50;;;15.00;;
78430;SDS011;67727;50.236;22.452;2023-02-28T06:27:58;23.70;;;12.00;;
78430;SDS011;67727;50.236;22.452;2023-02-28T06:30:25;15.30;;;9.50;;
78430;SDS011;67727;50.236;22.452;2023-02-28T06:32:56;19.50;;;10.70;;
78430;SDS011;67727;50.236;22.452;2023-02-28T06:35:23;16.20;;;8.80;;
78430;SDS011;67727;50.236;22.452;2023-02-28T06:37:50;12.80;;;7.70;;
78430;SDS011;67727;50.236;22.452;2023-02-28T06:40:17;12.60;;;7.60;;
78430;SDS011;67727;50.236;22.452;2023-02-28T06:42:44;11.40;;;6.50;;
78430;SDS011;67727;50.236;22.452;2023-02-28T06:45:12;14.10;;;7.30;;
78430;SDS011;67727;50.236;22.452;2023-02-28T06:47:40;18.90;;;10.70;;
78430;SDS011;67727;50.236;22.452;2023-02-28T06:50:09;9.40;;;5.70;;
78430;SDS011;67727;50.236;22.452;2023-02-28T06:52:38;9.20;;;5.50;;
78430;SDS011;67727;50.236;22.452;2023-02-28T06:55:06;15.30;;;9.00;;
78430;SDS011;67727;50.236;22.452;2023-02-28T07:00:03;12.20;;;6.20;;
78430;SDS011;67727;50.236;22.452;2023-02-28T07:02:34;11.10;;;6.50;;
78430;SDS011;67727;50.236;22.452;2023-02-28T07:05:03;18.70;;;9.60;;
78430;SDS011;67727;50.236;22.452;2023-02-28T07:07:33;23.20;;;11.70;;
78430;SDS011;67727;50.236;22.452;2023-02-28T07:10:02;23.70;;;10.50;;
78430;SDS011;67727;50.236;22.452;2023-02-28T07:12:29;18.80;;;9.40;;
78430;SDS011;67727;50.236;22.452;2023-02-28T07:14:56;21.10;;;9.30;;
78430;SDS011;67727;50.236;22.452;2023-02-28T07:17:23;13.80;;;8.00;;
78430;SDS011;67727;50.236;22.452;2023-02-28T07:19:51;10.90;;;6.80;;
78430;SDS011;67727;50.236;22.452;2023-02-28T07:22:18;11.30;;;7.00;;
78430;SDS011;67727;50.236;22.452;2023-02-28T07:24:45;11.70;;;8.00;;
78430;SDS011;67727;50.236;22.452;2023-02-28T07:27:12;8.70;;;6.50;;
78430;SDS011;67727;50.236;22.452;2023-02-28T07:29:39;12.00;;;7.10;;
78430;SDS011;67727;50.236;22.452;2023-02-28T07:32:06;13.00;;;6.60;;
78430;SDS011;67727;50.236;22.452;2023-02-28T07:34:33;12.60;;;6.80;;
78430;SDS011;67727;50.236;22.452;2023-02-28T07:37:00;15.40;;;7.40;;
78430;SDS011;67727;50.236;22.452;2023-02-28T07:39:30;12.30;;;6.80;;
78430;SDS011;67727;50.236;22.452;2023-02-28T07:41:57;12.10;;;6.70;;
78430;SDS011;67727;50.236;22.452;2023-02-28T07:44:26;13.90;;;8.20;;
78430;SDS011;67727;50.236;22.452;2023-02-28T07:46:53;8.90;;;5.70;;
78430;SDS011;67727;50.236;22.452;2023-02-28T07:49:20;12.80;;;7.00;;
78430;SDS011;67727;50.236;22.452;2023-02-28T07:51:48;7.40;;;5.40;;
78430;SDS011;67727;50.236;22.452;2023-02-28T07:54:15;14.70;;;7.20;;
78430;SDS011;67727;50.236;22.452;2023-02-28T07:56:42;8.30;;;5.80;;
78430;SDS011;67727;50.236;22.452;2023-02-28T07:59:09;9.10;;;6.90;;
78430;SDS011;67727;50.236;22.452;2023-02-28T08:01:36;7.20;;;4.90;;
78430;SDS011;67727;50.236;22.452;2023-02-28T08:04:04;7.90;;;4.90;;
78430;SDS011;67727;50.236;22.452;2023-02-28T08:06:31;8.60;;;6.50;;
78430;SDS011;67727;50.236;22.452;2023-02-28T08:08:58;8.70;;;5.80;;
78430;SDS011;67727;50.236;22.452;2023-02-28T08:11:25;5.30;;;3.70;;
78430;SDS011;67727;50.236;22.452;2023-02-28T08:13:54;7.60;;;4.70;;
78430;SDS011;67727;50.236;22.452;2023-02-28T08:16:21;9.60;;;5.30;;
78430;SDS011;67727;50.236;22.452;2023-02-28T08:18:52;9.50;;;5.50;;
78430;SDS011;67727;50.236;22.452;2023-02-28T08:21:19;10.30;;;5.20;;
78430;SDS011;67727;50.236;22.452;2023-02-28T08:23:47;10.10;;;6.90;;
78430;SDS011;67727;50.236;22.452;2023-02-28T08:26:16;8.80;;;5.70;;
78430;SDS011;67727;50.236;22.452;2023-02-28T08:28:44;9.40;;;5.40;;
78430;SDS011;67727;50.236;22.452;2023-02-28T08:31:13;8.20;;;5.30;;
78430;SDS011;67727;50.236;22.452;2023-02-28T08:33:42;10.80;;;5.60;;
78430;SDS011;67727;50.236;22.452;2023-02-28T08:36:11;7.90;;;4.60;;
78430;SDS011;67727;50.236;22.452;2023-02-28T08:38:38;6.50;;;4.60;;
78430;SDS011;67727;50.236;22.452;2023-02-28T08:41:07;14.10;;;5.40;;
78430;SDS011;67727;50.236;22.452;2023-02-28T08:43:36;13.80;;;5.30;;
78430;SDS011;67727;50.236;22.452;2023-02-28T08:46:04;8.90;;;4.60;;
78430;SDS011;67727;50.236;22.452;2023-02-28T08:48:33;15.50;;;6.60;;
78430;SDS011;67727;50.236;22.452;2023-02-28T08:51:03;10.50;;;5.60;;
78430;SDS011;67727;50.236;22.452;2023-02-28T08:53:32;9.10;;;5.40;;
78430;SDS011;67727;50.236;22.452;2023-02-28T08:56:00;6.00;;;4.10;;
78430;SDS011;67727;50.236;22.452;2023-02-28T08:58:29;16.70;;;9.20;;
78430;SDS011;67727;50.236;22.452;2023-02-28T09:00:56;22.90;;;12.00;;
78430;SDS011;67727;50.236;22.452;2023-02-28T09:03:23;10.00;;;7.30;;
78430;SDS011;67727;50.236;22.452;2023-02-28T09:05:57;11.80;;;6.60;;
78430;SDS011;67727;50.236;22.452;2023-02-28T09:08:27;9.00;;;4.90;;
78430;SDS011;67727;50.236;22.452;2023-02-28T09:10:55;7.90;;;5.00;;
78430;SDS011;67727;50.236;22.452;2023-02-28T09:13:24;7.60;;;4.80;;
78430;SDS011;67727;50.236;22.452;2023-02-28T09:15:53;7.70;;;4.50;;
78430;SDS011;67727;50.236;22.452;2023-02-28T09:18:24;7.30;;;5.00;;
78430;SDS011;67727;50.236;22.452;2023-02-28T09:20:52;9.50;;;5.40;;
78430;SDS011;67727;50.236;22.452;2023-02-28T09:23:19;8.60;;;5.60;;
78430;SDS011;67727;50.236;22.452;2023-02-28T09:25:48;12.60;;;6.50;;
78430;SDS011;67727;50.236;22.452;2023-02-28T09:28:17;10.50;;;5.80;;
78430;SDS011;67727;50.236;22.452;2023-02-28T09:30:45;9.10;;;5.80;;
78430;SDS011;67727;50.236;22.452;2023-02-28T09:33:14;8.50;;;6.10;;
78430;SDS011;67727;50.236;22.452;2023-02-28T09:35:42;9.40;;;6.10;;
78430;SDS011;67727;50.236;22.452;2023-02-28T09:38:10;10.20;;;6.10;;
78430;SDS011;67727;50.236;22.452;2023-02-28T09:41:11;7.10;;;4.60;;
78430;SDS011;67727;50.236;22.452;2023-02-28T09:43:38;7.40;;;4.90;;
78430;SDS011;67727;50.236;22.452;2023-02-28T09:48:55;8.10;;;5.80;;
78430;SDS011;67727;50.236;22.452;2023-02-28T09:53:59;9.70;;;6.10;;
78430;SDS011;67727;50.236;22.452;2023-02-28T09:56:31;8.50;;;5.70;;
78430;SDS011;67727;50.236;22.452;2023-02-28T10:01:40;7.60;;;5.20;;
78430;SDS011;67727;50.236;22.452;2023-02-28T10:08:10;9.30;;;6.10;;
78430;SDS011;67727;50.236;22.452;2023-02-28T10:10:41;7.40;;;4.90;;
78430;SDS011;67727;50.236;22.452;2023-02-28T10:16:24;8.80;;;6.00;;
78430;SDS011;67727;50.236;22.452;2023-02-28T10:18:57;8.50;;;5.80;;
78430;SDS011;67727;50.236;22.452;2023-02-28T10:21:34;8.40;;;5.00;;
78430;SDS011;67727;50.236;22.452;2023-02-28T10:24:15;10.30;;;6.00;;
78430;SDS011;67727;50.236;22.452;2023-02-28T10:26:56;9.70;;;5.50;;
78430;SDS011;67727;50.236;22.452;2023-02-28T10:29:27;9.40;;;5.60;;
78430;SDS011;67727;50.236;22.452;2023-02-28T10:31:58;7.00;;;5.80;;
78430;SDS011;67727;50.236;22.452;2023-02-28T10:34:29;7.10;;;5.70;;
78430;SDS011;67727;50.236;22.452;2023-02-28T10:36:56;8.20;;;5.30;;
78430;SDS011;67727;50.236;22.452;2023-02-28T10:39:37;9.80;;;6.00;;
78430;SDS011;67727;50.236;22.452;2023-02-28T10:42:18;12.00;;;6.60;;
78430;SDS011;67727;50.236;22.452;2023-02-28T10:44:48;7.90;;;6.10;;
78430;SDS011;67727;50.236;22.452;2023-02-28T10:47:16;8.00;;;5.50;;
78430;SDS011;67727;50.236;22.452;2023-02-28T10:49:49;8.50;;;5.20;;
78430;SDS011;67727;50.236;22.452;2023-02-28T10:52:38;7.20;;;4.70;;
78430;SDS011;67727;50.236;22.452;2023-02-28T10:55:23;6.60;;;5.00;;
78430;SDS011;67727;50.236;22.452;2023-02-28T10:57:52;9.10;;;4.30;;
78430;SDS011;67727;50.236;22.452;2023-02-28T11:00:22;7.10;;;4.80;;
78430;SDS011;67727;50.236;22.452;2023-02-28T11:02:52;6.50;;;4.70;;
78430;SDS011;67727;50.236;22.452;2023-02-28T11:05:32;8.50;;;5.30;;
78430;SDS011;67727;50.236;22.452;2023-02-28T11:08:14;8.00;;;4.70;;
78430;SDS011;67727;50.236;22.452;2023-02-28T11:10:47;9.20;;;5.60;;
78430;SDS011;67727;50.236;22.452;2023-02-28T11:13:26;10.20;;;5.00;;
78430;SDS011;67727;50.236;22.452;2023-02-28T11:15:58;12.60;;;6.40;;
78430;SDS011;67727;50.236;22.452;2023-02-28T11:21:04;7.60;;;5.80;;
78430;SDS011;67727;50.236;22.452;2023-02-28T11:23:32;8.20;;;5.60;;
78430;SDS011;67727;50.236;22.452;2023-02-28T11:26:03;10.60;;;6.40;;
78430;SDS011;67727;50.236;22.452;2023-02-28T11:28:35;8.10;;;6.20;;
78430;SDS011;67727;50.236;22.452;2023-02-28T11:33:44;7.20;;;4.50;;
78430;SDS011;67727;50.236;22.452;2023-02-28T11:38:53;9.50;;;5.10;;
78430;SDS011;67727;50.236;22.452;2023-02-28T11:41:37;8.30;;;5.60;;
78430;SDS011;67727;50.236;22.452;2023-02-28T11:55:27;11.00;;;6.20;;
78430;SDS011;67727;50.236;22.452;2023-02-28T12:03:47;6.60;;;4.90;;
78430;SDS011;67727;50.236;22.452;2023-02-28T12:06:54;6.20;;;4.40;;
78430;SDS011;67727;50.236;22.452;2023-02-28T12:12:38;6.60;;;5.40;;
78430;SDS011;67727;50.236;22.452;2023-02-28T12:17:52;7.50;;;4.70;;
78430;SDS011;67727;50.236;22.452;2023-02-28T12:20:36;7.80;;;5.30;;
78430;SDS011;67727;50.236;22.452;2023-02-28T12:23:21;8.60;;;5.10;;
78430;SDS011;67727;50.236;22.452;2023-02-28T12:26:13;10.70;;;6.20;;
78430;SDS011;67727;50.236;22.452;2023-02-28T12:28:53;8.60;;;5.10;;
78430;SDS011;67727;50.236;22.452;2023-02-28T12:31:29;7.50;;;5.40;;
78430;SDS011;67727;50.236;22.452;2023-02-28T12:34:03;8.40;;;6.50;;
78430;SDS011;67727;50.236;22.452;2023-02-28T12:36:36;13.00;;;8.30;;
78430;SDS011;67727;50.236;22.452;2023-02-28T12:39:05;9.50;;;6.40;;
78430;SDS011;67727;50.236;22.452;2023-02-28T12:41:39;14.10;;;8.40;;
78430;SDS011;67727;50.236;22.452;2023-02-28T12:47:18;9.90;;;6.20;;
78430;SDS011;67727;50.236;22.452;2023-02-28T12:52:58;11.20;;;6.80;;
78430;SDS011;67727;50.236;22.452;2023-02-28T12:55:38;11.20;;;5.70;;
78430;SDS011;67727;50.236;22.452;2023-02-28T13:01:45;7.90;;;5.50;;
78430;SDS011;67727;50.236;22.452;2023-02-28T13:09:41;10.30;;;7.80;;
78430;SDS011;67727;50.236;22.452;2023-02-28T13:12:18;8.60;;;6.80;;
78430;SDS011;67727;50.236;22.452;2023-02-28T13:14:47;9.30;;;5.80;;
78430;SDS011;67727;50.236;22.452;2023-02-28T13:17:17;10.90;;;7.30;;
78430;SDS011;67727;50.236;22.452;2023-02-28T13:22:36;9.10;;;5.80;;
78430;SDS011;67727;50.236;22.452;2023-02-28T13:28:56;8.30;;;5.70;;
78430;SDS011;67727;50.236;22.452;2023-02-28T13:31:24;10.10;;;6.10;;
78430;SDS011;67727;50.236;22.452;2023-02-28T13:36:25;11.50;;;6.80;;
78430;SDS011;67727;50.236;22.452;2023-02-28T13:39:03;11.20;;;6.70;;
78430;SDS011;67727;50.236;22.452;2023-02-28T13:41:50;10.30;;;7.00;;
78430;SDS011;67727;50.236;22.452;2023-02-28T13:54:41;9.00;;;5.80;;
78430;SDS011;67727;50.236;22.452;2023-02-28T14:02:39;8.80;;;5.70;;
78430;SDS011;67727;50.236;22.452;2023-02-28T14:05:26;11.90;;;6.90;;
78430;SDS011;67727;50.236;22.452;2023-02-28T14:07:57;13.00;;;7.50;;
78430;SDS011;67727;50.236;22.452;2023-02-28T14:16:03;8.20;;;5.00;;
78430;SDS011;67727;50.236;22.452;2023-02-28T14:26:38;9.20;;;5.70;;
78430;SDS011;67727;50.236;22.452;2023-02-28T14:32:11;7.60;;;5.10;;
78430;SDS011;67727;50.236;22.452;2023-02-28T14:34:52;7.70;;;5.50;;
78430;SDS011;67727;50.236;22.452;2023-02-28T14:37:29;7.50;;;4.40;;
78430;SDS011;67727;50.236;22.452;2023-02-28T14:39:59;8.70;;;4.80;;
78430;SDS011;67727;50.236;22.452;2023-02-28T14:42:32;11.90;;;6.90;;
78430;SDS011;67727;50.236;22.452;2023-02-28T14:45:17;11.90;;;6.70;;
78430;SDS011;67727;50.236;22.452;2023-02-28T14:47:49;9.40;;;5.80;;
78430;SDS011;67727;50.236;22.452;2023-02-28T14:50:22;15.00;;;7.80;;
78430;SDS011;67727;50.236;22.452;2023-02-28T14:52:54;9.30;;;6.40;;
78430;SDS011;67727;50.236;22.452;2023-02-28T14:55:24;28.80;;;16.50;;
78430;SDS011;67727;50.236;22.452;2023-02-28T14:57:56;19.90;;;11.70;;
78430;SDS011;67727;50.236;22.452;2023-02-28T15:00:29;17.40;;;8.90;;
78430;SDS011;67727;50.236;22.452;2023-02-28T15:02:59;10.10;;;6.90;;
78430;SDS011;67727;50.236;22.452;2023-02-28T15:05:29;10.00;;;6.30;;
78430;SDS011;67727;50.236;22.452;2023-02-28T15:08:03;10.70;;;6.80;;
78430;SDS011;67727;50.236;22.452;2023-02-28T15:10:33;13.50;;;7.80;;
78430;SDS011;67727;50.236;22.452;2023-02-28T15:18:25;25.80;;;11.30;;
78430;SDS011;67727;50.236;22.452;2023-02-28T15:20:54;22.00;;;11.10;;
78430;SDS011;67727;50.236;22.452;2023-02-28T15:23:24;21.10;;;10.90;;
78430;SDS011;67727;50.236;22.452;2023-02-28T15:25:51;18.60;;;10.80;;
78430;SDS011;67727;50.236;22.452;2023-02-28T15:28:20;20.50;;;9.20;;
78430;SDS011;67727;50.236;22.452;2023-02-28T15:30:54;23.20;;;12.10;;
78430;SDS011;67727;50.236;22.452;2023-02-28T15:33:29;23.90;;;11.00;;
78430;SDS011;67727;50.236;22.452;2023-02-28T15:36:14;28.00;;;14.50;;
78430;SDS011;67727;50.236;22.452;2023-02-28T15:38:43;22.00;;;11.90;;
78430;SDS011;67727;50.236;22.452;2023-02-28T15:41:21;23.40;;;12.00;;
78430;SDS011;67727;50.236;22.452;2023-02-28T15:47:05;28.30;;;14.60;;
78430;SDS011;67727;50.236;22.452;2023-02-28T15:49:44;25.30;;;13.60;;
78430;SDS011;67727;50.236;22.452;2023-02-28T15:52:15;22.40;;;11.80;;
78430;SDS011;67727;50.236;22.452;2023-02-28T15:54:49;23.80;;;12.70;;
78430;SDS011;67727;50.236;22.452;2023-02-28T15:57:27;27.00;;;14.60;;
78430;SDS011;67727;50.236;22.452;2023-02-28T15:59:56;30.60;;;15.80;;
78430;SDS011;67727;50.236;22.452;2023-02-28T16:02:34;38.60;;;18.70;;
78430;SDS011;67727;50.236;22.452;2023-02-28T16:07:33;69.60;;;34.80;;
78430;SDS011;67727;50.236;22.452;2023-02-28T16:10:03;57.80;;;30.60;;
78430;SDS011;67727;50.236;22.452;2023-02-28T16:12:32;64.90;;;35.00;;
78430;SDS011;67727;50.236;22.452;2023-02-28T16:15:03;58.90;;;32.20;;
78430;SDS011;67727;50.236;22.452;2023-02-28T16:17:35;44.90;;;25.50;;
78430;SDS011;67727;50.236;22.452;2023-02-28T16:20:14;45.30;;;22.30;;
78430;SDS011;67727;50.236;22.452;2023-02-28T16:22:43;50.30;;;23.90;;
78430;SDS011;67727;50.236;22.452;2023-02-28T16:25:13;115.30;;;43.30;;
78430;SDS011;67727;50.236;22.452;2023-02-28T16:27:42;137.00;;;47.80;;
78430;SDS011;67727;50.236;22.452;2023-02-28T16:30:19;156.50;;;57.90;;
78430;SDS011;67727;50.236;22.452;2023-02-28T16:32:48;198.60;;;61.90;;
78430;SDS011;67727;50.236;22.452;2023-02-28T16:35:17;295.80;;;84.50;;
78430;SDS011;67727;50.236;22.452;2023-02-28T16:37:45;360.80;;;100.90;;
78430;SDS011;67727;50.236;22.452;2023-02-28T16:40:13;243.60;;;79.30;;
78430;SDS011;67727;50.236;22.452;2023-02-28T16:45:17;141.70;;;51.40;;
78430;SDS011;67727;50.236;22.452;2023-02-28T16:47:46;136.00;;;52.70;;
78430;SDS011;67727;50.236;22.452;2023-02-28T16:50:32;132.90;;;53.00;;
78430;SDS011;67727;50.236;22.452;2023-02-28T16:52:59;171.20;;;66.30;;
78430;SDS011;67727;50.236;22.452;2023-02-28T16:55:26;210.80;;;81.80;;
78430;SDS011;67727;50.236;22.452;2023-02-28T16:57:55;226.10;;;106.00;;
78430;SDS011;67727;50.236;22.452;2023-02-28T17:00:23;119.50;;;57.10;;
78430;SDS011;67727;50.236;22.452;2023-02-28T17:02:51;76.90;;;33.40;;
78430;SDS011;67727;50.236;22.452;2023-02-28T17:05:19;57.40;;;25.50;;
78430;SDS011;67727;50.236;22.452;2023-02-28T17:07:46;52.80;;;26.70;;
78430;SDS011;67727;50.236;22.452;2023-02-28T17:12:48;74.80;;;35.20;;
78430;SDS011;67727;50.236;22.452;2023-02-28T17:15:16;84.90;;;33.80;;
78430;SDS011;67727;50.236;22.452;2023-02-28T17:17:45;90.40;;;39.40;;
78430;SDS011;67727;50.236;22.452;2023-02-28T17:20:17;111.70;;;49.00;;
78430;SDS011;67727;50.236;22.452;2023-02-28T17:22:49;131.20;;;52.10;;